<?xml version="1.0" encoding="UTF-8"?>
<gpx xmlns="http://www.topografix.com/GPX/1/1" creator="http://www.ture.no - Norgeskart outdoors" version="1.1" xmlns:xsi="http://www.w3.org/2001/XMLSchema-instance" xsi:schemaLocation="http://www.topografix.com/GPX/1/1 http://www.topografix.com/GPX/1/1/gpx.xsd">
  <trk>
    <name>Nieidagorzi</name>
    <trkseg>
      <trkpt lat="69.30303766" lon="23.57263406">
        <ele>308.0023095703125</ele>
        <time>2022-07-25T14:43:57.000Z</time>
      </trkpt>
      <trkpt lat="69.303040779" lon="23.572674666999998">
        <ele>307.7081689453125</ele>
        <time>2022-07-25T14:43:59.000Z</time>
      </trkpt>
      <trkpt lat="69.30304425599999" lon="23.572724657000002">
        <ele>307.1225122070312</ele>
        <time>2022-07-25T14:44:01.000Z</time>
      </trkpt>
      <trkpt lat="69.303039944" lon="23.572783104">
        <ele>306.5859765625</ele>
        <time>2022-07-25T14:44:03.000Z</time>
      </trkpt>
      <trkpt lat="69.303024865" lon="23.572832318">
        <ele>306.1362939453125</ele>
        <time>2022-07-25T14:44:07.000Z</time>
      </trkpt>
      <trkpt lat="69.303007063" lon="23.572884367999997">
        <ele>305.56377807617184</ele>
        <time>2022-07-25T14:44:09.000Z</time>
      </trkpt>
      <trkpt lat="69.302994042" lon="23.572943516">
        <ele>304.6945947265625</ele>
        <time>2022-07-25T14:44:11.000Z</time>
      </trkpt>
      <trkpt lat="69.302982495" lon="23.573013022">
        <ele>303.92884155273435</ele>
        <time>2022-07-25T14:44:13.000Z</time>
      </trkpt>
      <trkpt lat="69.302967026" lon="23.573072472">
        <ele>303.5670556640625</ele>
        <time>2022-07-25T14:44:15.000Z</time>
      </trkpt>
      <trkpt lat="69.302947535" lon="23.573111110999996">
        <ele>303.6607568359375</ele>
        <time>2022-07-25T14:44:17.000Z</time>
      </trkpt>
      <trkpt lat="69.302926493" lon="23.573141606">
        <ele>303.88180175781247</ele>
        <time>2022-07-25T14:44:19.000Z</time>
      </trkpt>
      <trkpt lat="69.302905846" lon="23.573175054">
        <ele>303.92389160156245</ele>
        <time>2022-07-25T14:44:21.000Z</time>
      </trkpt>
      <trkpt lat="69.302884381" lon="23.573213908">
        <ele>303.89392944335935</ele>
        <time>2022-07-25T14:44:23.000Z</time>
      </trkpt>
      <trkpt lat="69.302862049" lon="23.573255826">
        <ele>304.03667846679684</ele>
        <time>2022-07-25T14:44:25.000Z</time>
      </trkpt>
      <trkpt lat="69.30284060299999" lon="23.573307071000002">
        <ele>304.23872924804687</ele>
        <time>2022-07-25T14:44:27.000Z</time>
      </trkpt>
      <trkpt lat="69.302819984" lon="23.573355082">
        <ele>303.98027587890624</ele>
        <time>2022-07-25T14:44:29.000Z</time>
      </trkpt>
      <trkpt lat="69.302797683" lon="23.573369634">
        <ele>303.38994384765624</ele>
        <time>2022-07-25T14:44:31.000Z</time>
      </trkpt>
      <trkpt lat="69.30277469" lon="23.573346887">
        <ele>303.11205078125</ele>
        <time>2022-07-25T14:44:33.000Z</time>
      </trkpt>
      <trkpt lat="69.302750815" lon="23.573313083">
        <ele>303.4055078125</ele>
        <time>2022-07-25T14:44:35.000Z</time>
      </trkpt>
      <trkpt lat="69.30272712200001" lon="23.573286273999997">
        <ele>304.17000366210937</ele>
        <time>2022-07-25T14:44:37.000Z</time>
      </trkpt>
      <trkpt lat="69.302702942" lon="23.573280673000003">
        <ele>304.81536499023434</ele>
        <time>2022-07-25T14:44:39.000Z</time>
      </trkpt>
      <trkpt lat="69.30267962699999" lon="23.57328327">
        <ele>305.30160156249997</ele>
        <time>2022-07-25T14:44:41.000Z</time>
      </trkpt>
      <trkpt lat="69.302656202" lon="23.573271875">
        <ele>304.76168457031247</ele>
        <time>2022-07-25T14:44:43.000Z</time>
      </trkpt>
      <trkpt lat="69.30263388" lon="23.573243892">
        <ele>304.07004638671873</ele>
        <time>2022-07-25T14:44:45.000Z</time>
      </trkpt>
      <trkpt lat="69.302612068" lon="23.573219709">
        <ele>303.1242517089844</ele>
        <time>2022-07-25T14:44:47.000Z</time>
      </trkpt>
      <trkpt lat="69.30259197000001" lon="23.573199515">
        <ele>302.5964990234375</ele>
        <time>2022-07-25T14:44:49.000Z</time>
      </trkpt>
      <trkpt lat="69.302573691" lon="23.573160291">
        <ele>302.3652673339844</ele>
        <time>2022-07-25T14:44:51.000Z</time>
      </trkpt>
      <trkpt lat="69.302555193" lon="23.573118146">
        <ele>302.74150634765624</ele>
        <time>2022-07-25T14:44:53.000Z</time>
      </trkpt>
      <trkpt lat="69.30253427299999" lon="23.573097094999998">
        <ele>303.5419152832031</ele>
        <time>2022-07-25T14:44:55.000Z</time>
      </trkpt>
      <trkpt lat="69.302512137" lon="23.573094369">
        <ele>304.269375</ele>
        <time>2022-07-25T14:44:57.000Z</time>
      </trkpt>
      <trkpt lat="69.302490557" lon="23.573078603">
        <ele>304.7060632324219</ele>
        <time>2022-07-25T14:44:59.000Z</time>
      </trkpt>
      <trkpt lat="69.302467632" lon="23.573047624999997">
        <ele>304.7207116699219</ele>
        <time>2022-07-25T14:45:01.000Z</time>
      </trkpt>
      <trkpt lat="69.30244529000001" lon="23.573004036">
        <ele>304.81939331054684</ele>
        <time>2022-07-25T14:45:03.000Z</time>
      </trkpt>
      <trkpt lat="69.30242392100001" lon="23.572965258000004">
        <ele>304.7924645996094</ele>
        <time>2022-07-25T14:45:05.000Z</time>
      </trkpt>
      <trkpt lat="69.30240614600001" lon="23.572921169">
        <ele>304.55586181640626</ele>
        <time>2022-07-25T14:45:07.000Z</time>
      </trkpt>
      <trkpt lat="69.302387975" lon="23.572879156">
        <ele>304.5873193359375</ele>
        <time>2022-07-25T14:45:09.000Z</time>
      </trkpt>
      <trkpt lat="69.302368847" lon="23.572838482">
        <ele>304.90735107421875</ele>
        <time>2022-07-25T14:45:11.000Z</time>
      </trkpt>
      <trkpt lat="69.302346566" lon="23.572814242">
        <ele>305.08427978515624</ele>
        <time>2022-07-25T14:45:13.000Z</time>
      </trkpt>
      <trkpt lat="69.302321948" lon="23.572804164">
        <ele>304.673818359375</ele>
        <time>2022-07-25T14:45:15.000Z</time>
      </trkpt>
      <trkpt lat="69.302298783" lon="23.57281677">
        <ele>304.59259277343745</ele>
        <time>2022-07-25T14:45:17.000Z</time>
      </trkpt>
      <trkpt lat="69.302278032" lon="23.572816352999997">
        <ele>304.4457177734375</ele>
        <time>2022-07-25T14:45:19.000Z</time>
      </trkpt>
      <trkpt lat="69.30225917199999" lon="23.572792645">
        <ele>303.87314697265623</ele>
        <time>2022-07-25T14:45:25.000Z</time>
      </trkpt>
      <trkpt lat="69.30224125" lon="23.572738559999998">
        <ele>302.7902734375</ele>
        <time>2022-07-25T14:45:27.000Z</time>
      </trkpt>
      <trkpt lat="69.302225503" lon="23.572689198000003">
        <ele>302.073671875</ele>
        <time>2022-07-25T14:45:29.000Z</time>
      </trkpt>
      <trkpt lat="69.302209035" lon="23.572644615">
        <ele>302.10725952148437</ele>
        <time>2022-07-25T14:45:31.000Z</time>
      </trkpt>
      <trkpt lat="69.302189386" lon="23.572608210000002">
        <ele>302.3481469726562</ele>
        <time>2022-07-25T14:45:33.000Z</time>
      </trkpt>
      <trkpt lat="69.302166663" lon="23.57257828">
        <ele>302.8067102050781</ele>
        <time>2022-07-25T14:45:35.000Z</time>
      </trkpt>
      <trkpt lat="69.302141539" lon="23.572556568000003">
        <ele>303.1786645507812</ele>
        <time>2022-07-25T14:45:37.000Z</time>
      </trkpt>
      <trkpt lat="69.30211481399999" lon="23.572550235999998">
        <ele>303.58915039062504</ele>
        <time>2022-07-25T14:45:39.000Z</time>
      </trkpt>
      <trkpt lat="69.302088103" lon="23.572558096999998">
        <ele>304.0422998046875</ele>
        <time>2022-07-25T14:45:41.000Z</time>
      </trkpt>
      <trkpt lat="69.302057983" lon="23.572577365999997">
        <ele>304.333388671875</ele>
        <time>2022-07-25T14:45:43.000Z</time>
      </trkpt>
      <trkpt lat="69.30202980300001" lon="23.572575468">
        <ele>303.71721435546874</ele>
        <time>2022-07-25T14:45:47.000Z</time>
      </trkpt>
      <trkpt lat="69.302002625" lon="23.572542952000003">
        <ele>303.03997436523434</ele>
        <time>2022-07-25T14:45:51.000Z</time>
      </trkpt>
      <trkpt lat="69.301975497" lon="23.572492962">
        <ele>302.9136987304687</ele>
        <time>2022-07-25T14:45:55.000Z</time>
      </trkpt>
      <trkpt lat="69.301947291" lon="23.572456646">
        <ele>303.6850549316406</ele>
        <time>2022-07-25T14:45:59.000Z</time>
      </trkpt>
      <trkpt lat="69.30191975" lon="23.572419263999997">
        <ele>304.05624023437497</ele>
        <time>2022-07-25T14:46:01.000Z</time>
      </trkpt>
      <trkpt lat="69.30189493200001" lon="23.572384194999998">
        <ele>304.63286376953124</ele>
        <time>2022-07-25T14:46:05.000Z</time>
      </trkpt>
      <trkpt lat="69.301871006" lon="23.572364147000002">
        <ele>304.864443359375</ele>
        <time>2022-07-25T14:46:07.000Z</time>
      </trkpt>
      <trkpt lat="69.30184662900001" lon="23.572366231">
        <ele>304.86435791015623</ele>
        <time>2022-07-25T14:46:09.000Z</time>
      </trkpt>
      <trkpt lat="69.30181902599999" lon="23.572394856000003">
        <ele>305.3847192382812</ele>
        <time>2022-07-25T14:46:13.000Z</time>
      </trkpt>
      <trkpt lat="69.30179059700001" lon="23.572437645999997">
        <ele>306.4596337890625</ele>
        <time>2022-07-25T14:46:17.000Z</time>
      </trkpt>
      <trkpt lat="69.301765099" lon="23.572479865">
        <ele>307.390126953125</ele>
        <time>2022-07-25T14:46:21.000Z</time>
      </trkpt>
      <trkpt lat="69.301739037" lon="23.572490333">
        <ele>307.0440087890625</ele>
        <time>2022-07-25T14:46:25.000Z</time>
      </trkpt>
      <trkpt lat="69.30171531100001" lon="23.57247249">
        <ele>306.5771691894531</ele>
        <time>2022-07-25T14:46:29.000Z</time>
      </trkpt>
      <trkpt lat="69.301691902" lon="23.572430867999998">
        <ele>306.4475122070312</ele>
        <time>2022-07-25T14:46:31.000Z</time>
      </trkpt>
      <trkpt lat="69.30167041199999" lon="23.572387085">
        <ele>306.7795861816406</ele>
        <time>2022-07-25T14:46:35.000Z</time>
      </trkpt>
      <trkpt lat="69.301648933" lon="23.572351415">
        <ele>306.8939599609375</ele>
        <time>2022-07-25T14:46:37.000Z</time>
      </trkpt>
      <trkpt lat="69.30163053199999" lon="23.572321957">
        <ele>306.68681884765624</ele>
        <time>2022-07-25T14:46:39.000Z</time>
      </trkpt>
      <trkpt lat="69.30161248300001" lon="23.572295308">
        <ele>306.53879638671873</ele>
        <time>2022-07-25T14:46:41.000Z</time>
      </trkpt>
      <trkpt lat="69.301593852" lon="23.572283332999998">
        <ele>306.64641357421874</ele>
        <time>2022-07-25T14:46:43.000Z</time>
      </trkpt>
      <trkpt lat="69.301572991" lon="23.572279786000003">
        <ele>306.8923974609375</ele>
        <time>2022-07-25T14:46:45.000Z</time>
      </trkpt>
      <trkpt lat="69.30155348999999" lon="23.572264531000002">
        <ele>307.2422265625</ele>
        <time>2022-07-25T14:46:47.000Z</time>
      </trkpt>
      <trkpt lat="69.301538822" lon="23.57222839">
        <ele>307.61948486328123</ele>
        <time>2022-07-25T14:46:49.000Z</time>
      </trkpt>
      <trkpt lat="69.3015295" lon="23.572204596">
        <ele>307.58650756835937</ele>
        <time>2022-07-25T14:46:51.000Z</time>
      </trkpt>
      <trkpt lat="69.301516722" lon="23.572200071000005">
        <ele>307.22945800781247</ele>
        <time>2022-07-25T14:46:51.936Z</time>
      </trkpt>
      <trkpt lat="69.301497203" lon="23.572202833">
        <ele>306.75032592773437</ele>
        <time>2022-07-25T14:46:57.000Z</time>
      </trkpt>
      <trkpt lat="69.301472375" lon="23.572194731">
        <ele>306.3921166992187</ele>
        <time>2022-07-25T14:46:59.000Z</time>
      </trkpt>
      <trkpt lat="69.301450929" lon="23.572179763">
        <ele>306.05465332031247</ele>
        <time>2022-07-25T14:47:01.000Z</time>
      </trkpt>
      <trkpt lat="69.301432892" lon="23.572158406">
        <ele>305.91855712890623</ele>
        <time>2022-07-25T14:47:03.000Z</time>
      </trkpt>
      <trkpt lat="69.301413899" lon="23.572144483">
        <ele>305.6982446289062</ele>
        <time>2022-07-25T14:47:05.000Z</time>
      </trkpt>
      <trkpt lat="69.301392563" lon="23.572148920000004">
        <ele>305.3230310058594</ele>
        <time>2022-07-25T14:47:07.000Z</time>
      </trkpt>
      <trkpt lat="69.301371228" lon="23.572174551">
        <ele>304.60588623046874</ele>
        <time>2022-07-25T14:47:09.000Z</time>
      </trkpt>
      <trkpt lat="69.301352269" lon="23.572206052">
        <ele>303.94259887695307</ele>
        <time>2022-07-25T14:47:11.000Z</time>
      </trkpt>
      <trkpt lat="69.301331282" lon="23.572235483999997">
        <ele>303.4781762695312</ele>
        <time>2022-07-25T14:47:13.000Z</time>
      </trkpt>
      <trkpt lat="69.301307642" lon="23.572254696">
        <ele>302.855263671875</ele>
        <time>2022-07-25T14:47:17.000Z</time>
      </trkpt>
      <trkpt lat="69.30128554500001" lon="23.572286425999998">
        <ele>302.95126586914057</ele>
        <time>2022-07-25T14:47:23.000Z</time>
      </trkpt>
      <trkpt lat="69.301266543" lon="23.572308886000002">
        <ele>303.16768432617187</ele>
        <time>2022-07-25T14:47:29.000Z</time>
      </trkpt>
      <trkpt lat="69.30125026900001" lon="23.572305553">
        <ele>303.5382287597656</ele>
        <time>2022-07-25T14:47:35.000Z</time>
      </trkpt>
      <trkpt lat="69.301233878" lon="23.572303031">
        <ele>302.2927087402344</ele>
        <time>2022-07-25T14:47:39.000Z</time>
      </trkpt>
      <trkpt lat="69.301234117" lon="23.572337578000003">
        <ele>301.3104516601562</ele>
        <time>2022-07-25T14:47:45.000Z</time>
      </trkpt>
      <trkpt lat="69.301233913" lon="23.572391725">
        <ele>299.9172998046875</ele>
        <time>2022-07-25T14:47:49.000Z</time>
      </trkpt>
      <trkpt lat="69.30122459600001" lon="23.572422764000002">
        <ele>298.33454833984376</ele>
        <time>2022-07-25T14:47:55.000Z</time>
      </trkpt>
      <trkpt lat="69.30119930800001" lon="23.572443587000002">
        <ele>296.875673828125</ele>
        <time>2022-07-25T14:47:59.000Z</time>
      </trkpt>
      <trkpt lat="69.30118559900001" lon="23.572477995">
        <ele>295.95859619140623</ele>
        <time>2022-07-25T14:48:03.000Z</time>
      </trkpt>
      <trkpt lat="69.301184178" lon="23.572540251000003">
        <ele>295.16358886718746</ele>
        <time>2022-07-25T14:48:07.000Z</time>
      </trkpt>
      <trkpt lat="69.301190469" lon="23.572616196">
        <ele>293.89701171875</ele>
        <time>2022-07-25T14:48:11.000Z</time>
      </trkpt>
      <trkpt lat="69.30119705300001" lon="23.572688983">
        <ele>292.83211914062497</ele>
        <time>2022-07-25T14:48:15.000Z</time>
      </trkpt>
      <trkpt lat="69.301205104" lon="23.572760977999998">
        <ele>291.85979858398434</ele>
        <time>2022-07-25T14:48:19.000Z</time>
      </trkpt>
      <trkpt lat="69.30121374000001" lon="23.572830842">
        <ele>290.9328515625</ele>
        <time>2022-07-25T14:48:25.000Z</time>
      </trkpt>
      <trkpt lat="69.30122374700001" lon="23.572890547">
        <ele>290.19605346679685</ele>
        <time>2022-07-25T14:48:29.000Z</time>
      </trkpt>
      <trkpt lat="69.301236598" lon="23.572934283">
        <ele>289.317763671875</ele>
        <time>2022-07-25T14:48:33.000Z</time>
      </trkpt>
      <trkpt lat="69.30124941599999" lon="23.572987034">
        <ele>288.58264404296875</ele>
        <time>2022-07-25T14:48:39.000Z</time>
      </trkpt>
      <trkpt lat="69.30125454" lon="23.57297048">
        <ele>288.3069970703125</ele>
        <time>2022-07-25T14:48:39.000Z</time>
      </trkpt>
      <trkpt lat="69.30125677" lon="23.57306165">
        <ele>288.096181640625</ele>
        <time>2022-07-25T14:48:43.000Z</time>
      </trkpt>
    </trkseg>
  </trk>
</gpx>
